createdAt,value
2022-08-31T00:01:48.978Z,60.92
2022-08-31T00:06:53.825Z,61.32
2022-08-31T00:11:56.884Z,61.42
2022-08-31T00:17:00.630Z,61.57
2022-08-31T00:22:04.922Z,61.75
2022-08-31T00:27:07.937Z,61.85
2022-08-31T00:32:10.718Z,61.83
2022-08-31T00:37:15.006Z,61.91
2022-08-31T00:42:17.789Z,62.10
2022-08-31T00:47:20.541Z,62.00
2022-08-31T00:52:28.451Z,61.75
2022-08-31T00:57:39.569Z,62.08
2022-08-31T01:02:45.129Z,61.97
2022-08-31T01:07:50.692Z,61.99
2022-08-31T01:12:55.639Z,62.13
2022-08-31T01:18:07.343Z,61.88
2022-08-31T01:23:16.449Z,61.66
2022-08-31T01:28:19.249Z,61.89
2022-08-31T01:33:21.863Z,62.22
2022-08-31T01:38:26.609Z,62.45
2022-08-31T01:43:31.265Z,62.63
2022-08-31T01:48:34.121Z,62.58
2022-08-31T01:53:39.211Z,62.62
2022-08-31T01:58:45.080Z,62.30
2022-08-31T02:04:13.886Z,62.58
2022-08-31T02:09:17.998Z,62.45
2022-08-31T02:14:21.729Z,62.42
2022-08-31T02:19:24.472Z,62.48
2022-08-31T02:24:28.513Z,62.58
2022-08-31T02:29:32.265Z,62.22
2022-08-31T02:34:35.232Z,62.30
2022-08-31T02:39:39.385Z,62.11
2022-08-31T02:44:42.145Z,62.29
2022-08-31T02:49:44.909Z,62.10
2022-08-31T02:54:48.971Z,61.85
2022-08-31T02:59:51.653Z,62.01
2022-08-31T03:04:54.484Z,61.94
2022-08-31T03:09:58.694Z,61.84
2022-08-31T03:15:01.602Z,61.77
2022-08-31T03:20:06.111Z,61.98
2022-08-31T03:25:10.990Z,61.99
2022-08-31T03:30:18.973Z,61.95
2022-08-31T03:35:36.204Z,62.31
2022-08-31T03:40:40.711Z,62.72
2022-08-31T03:45:45.501Z,62.71
2022-08-31T03:50:48.657Z,63.00
2022-08-31T03:56:03.768Z,62.85
2022-08-31T04:01:12.389Z,63.09
2022-08-31T04:06:34.292Z,63.18
2022-08-31T04:11:58.352Z,63.17
2022-08-31T04:17:35.996Z,63.56
2022-08-31T04:22:58.633Z,63.23
2022-08-31T04:28:10.588Z,63.58
2022-08-31T04:33:16.699Z,63.39
2022-08-31T04:38:19.480Z,63.73
2022-08-31T04:43:24.236Z,63.57
2022-08-31T04:48:27.032Z,63.57
2022-08-31T04:53:30.146Z,63.83
2022-08-31T04:58:35.860Z,63.78
2022-08-31T05:03:40.035Z,63.93
2022-08-31T05:08:42.993Z,64.13
2022-08-31T05:13:50.415Z,64.20
2022-08-31T05:18:54.111Z,64.11
2022-08-31T05:23:58.566Z,64.14
2022-08-31T05:29:06.334Z,64.37
2022-08-31T05:34:12.461Z,64.42
2022-08-31T05:39:15.353Z,64.42
2022-08-31T05:44:21.287Z,64.21
2022-08-31T05:49:27.919Z,64.20
2022-08-31T05:54:33.775Z,64.43
2022-08-31T05:59:39.664Z,64.56
2022-08-31T06:04:43.426Z,64.30
2022-08-31T06:09:47.205Z,64.65
2022-08-31T06:14:55.436Z,64.56
2022-08-31T06:19:58.247Z,64.78
2022-08-31T06:25:01.042Z,64.62
2022-08-31T06:30:07.223Z,64.39
2022-08-31T06:35:10.926Z,64.63
2022-08-31T06:40:30.610Z,64.84
2022-08-31T06:45:53.121Z,64.53
2022-08-31T06:51:09.789Z,64.88
2022-08-31T06:56:20.670Z,64.56
2022-08-31T07:01:43.628Z,64.70
2022-08-31T07:06:48.907Z,64.96
2022-08-31T07:11:53.585Z,64.83
2022-08-31T07:16:59.935Z,64.64
2022-08-31T07:22:06.529Z,64.71
2022-08-31T07:27:18.232Z,64.97
2022-08-31T07:32:29.847Z,64.96
2022-08-31T07:37:50.699Z,64.79
2022-08-31T07:42:57.408Z,64.67
2022-08-31T07:48:01.728Z,65.07
2022-08-31T07:53:16.477Z,64.67
2022-08-31T07:58:28.248Z,64.96
2022-08-31T08:03:32.694Z,64.54
2022-08-31T08:09:21.495Z,64.67
2022-08-31T08:14:31.823Z,64.89
2022-08-31T08:19:46.352Z,64.94
2022-08-31T08:24:50.494Z,64.54
2022-08-31T08:30:15.479Z,64.53
2022-08-31T08:35:21.304Z,64.69
2022-08-31T08:40:32.002Z,64.53
2022-08-31T08:45:36.652Z,64.58
2022-08-31T08:50:43.155Z,64.69
2022-08-31T08:55:53.172Z,64.84
2022-08-31T09:00:57.099Z,64.88
2022-08-31T09:06:07.089Z,64.61
2022-08-31T09:11:20.142Z,64.57
2022-08-31T09:16:40.813Z,64.58
2022-08-31T09:21:48.849Z,64.66
2022-08-31T09:27:00.160Z,64.75
2022-08-31T09:32:16.295Z,64.97
2022-08-31T09:37:23.559Z,64.66
2022-08-31T09:42:31.546Z,64.80
2022-08-31T09:47:45.818Z,64.78
2022-08-31T09:53:07.259Z,64.53
2022-08-31T09:58:11.073Z,64.92
2022-08-31T10:03:20.751Z,64.56
2022-08-31T10:08:43.188Z,64.90
2022-08-31T10:13:57.279Z,64.89
2022-08-31T10:19:04.609Z,65.00
2022-08-31T10:24:20.887Z,64.69
2022-08-31T10:29:32.942Z,64.79
2022-08-31T10:34:59.303Z,64.86
2022-08-31T10:40:07.244Z,64.55
2022-08-31T10:45:18.673Z,64.51
2022-08-31T10:50:29.278Z,64.56
2022-08-31T10:55:39.380Z,64.63
2022-08-31T11:00:51.019Z,64.50
2022-08-31T11:06:01.381Z,64.59
2022-08-31T11:11:11.601Z,64.80
2022-08-31T11:16:32.737Z,64.47
2022-08-31T11:21:52.123Z,64.72
2022-08-31T11:27:06.370Z,64.83
2022-08-31T11:32:19.966Z,64.54
2022-08-31T11:37:52.147Z,64.79
2022-08-31T11:43:01.338Z,64.60
2022-08-31T11:48:06.873Z,64.62
2022-08-31T11:53:25.310Z,64.63
2022-08-31T11:58:33.744Z,64.53
2022-08-31T12:03:52.325Z,64.84
2022-08-31T12:09:09.962Z,64.45
2022-08-31T12:14:22.676Z,64.54
2022-08-31T12:19:59.037Z,64.36
2022-08-31T12:25:15.753Z,64.62
2022-08-31T12:30:22.789Z,64.26
2022-08-31T12:35:27.235Z,64.23
2022-08-31T12:40:32.994Z,64.19
2022-08-31T12:45:59.777Z,64.33
2022-08-31T12:51:12.651Z,64.39
2022-08-31T12:56:25.977Z,64.00
2022-08-31T13:01:31.037Z,64.22
2022-08-31T13:06:36.395Z,64.05
2022-08-31T13:11:42.568Z,63.47
2022-08-31T13:16:49.327Z,60.16
2022-08-31T13:21:56.094Z,59.20
2022-08-31T13:27:11.737Z,58.44
2022-08-31T13:32:32.228Z,58.31
2022-08-31T13:37:40.536Z,57.12
2022-08-31T13:42:46.778Z,56.92
2022-08-31T13:47:57.716Z,56.95
2022-08-31T13:53:25.824Z,56.72
2022-08-31T13:58:30.023Z,56.77
2022-08-31T14:03:46.633Z,56.76
2022-08-31T14:08:50.927Z,56.51
2022-08-31T14:13:53.670Z,56.57
2022-08-31T14:18:58.019Z,55.88
2022-08-31T14:24:04.559Z,55.24
2022-08-31T14:29:10.177Z,55.28
2022-08-31T14:34:35.990Z,55.32
2022-08-31T14:39:41.908Z,54.54
2022-08-31T14:44:48.334Z,54.59
2022-08-31T14:49:52.971Z,55.30
2022-08-31T14:55:02.715Z,55.03
2022-08-31T15:00:08.000Z,54.62
2022-08-31T15:05:12.799Z,54.64
2022-08-31T15:10:16.776Z,54.98
2022-08-31T15:15:21.032Z,54.83
2022-08-31T15:20:25.475Z,54.70
2022-08-31T15:25:28.788Z,54.92
2022-08-31T15:30:33.688Z,54.93
2022-08-31T15:35:41.786Z,55.26
2022-08-31T15:40:44.743Z,55.68
2022-08-31T15:45:47.806Z,54.66
2022-08-31T15:51:00.514Z,54.97
2022-08-31T15:56:06.363Z,54.21
2022-08-31T16:01:14.026Z,54.50
2022-08-31T16:06:20.005Z,55.18
2022-08-31T16:11:25.147Z,54.66
2022-08-31T16:16:30.990Z,54.15
2022-08-31T16:21:39.694Z,54.96
2022-08-31T16:26:44.191Z,54.55
2022-08-31T16:31:47.202Z,55.19
2022-08-31T16:36:52.936Z,54.24
2022-08-31T16:41:56.109Z,54.24
2022-08-31T16:46:59.849Z,54.95
2022-08-31T16:52:05.956Z,55.12
2022-08-31T16:57:08.698Z,55.04
2022-08-31T17:02:13.225Z,54.98
2022-08-31T17:07:19.570Z,55.30
2022-08-31T17:12:26.651Z,56.31
2022-08-31T17:17:30.611Z,56.26
2022-08-31T17:22:37.177Z,55.99
2022-08-31T17:27:40.240Z,56.71
2022-08-31T17:32:45.016Z,56.47
2022-08-31T17:37:50.661Z,56.05
2022-08-31T17:42:57.949Z,55.50
2022-08-31T17:48:02.511Z,55.38
2022-08-31T17:53:06.568Z,55.36
2022-08-31T17:58:09.443Z,55.79
2022-08-31T18:03:12.369Z,55.45
2022-08-31T18:08:16.553Z,54.92
2022-08-31T18:13:20.343Z,54.81
2022-08-31T18:18:27.069Z,54.92
2022-08-31T18:23:31.099Z,54.92
2022-08-31T18:28:33.957Z,54.93
2022-08-31T18:33:37.956Z,54.79
2022-08-31T18:38:42.132Z,54.75
2022-08-31T18:43:58.760Z,54.60
2022-08-31T18:49:12.079Z,54.64
2022-08-31T18:54:17.156Z,54.48
2022-08-31T18:59:21.255Z,54.66
2022-08-31T19:04:24.004Z,54.46
2022-08-31T19:09:28.625Z,54.36
2022-08-31T19:14:34.875Z,54.20
2022-08-31T19:19:38.992Z,54.30
2022-08-31T19:24:43.495Z,54.03
2022-08-31T19:29:46.241Z,53.77
2022-08-31T19:34:49.713Z,53.61
2022-08-31T19:39:53.827Z,53.65
2022-08-31T19:50:20.115Z,53.66
2022-08-31T19:55:24.215Z,53.60
2022-08-31T20:00:29.693Z,53.46
2022-08-31T20:05:32.954Z,53.35
2022-08-31T20:10:46.958Z,53.13
2022-08-31T20:15:50.939Z,53.39
2022-08-31T20:20:55.017Z,53.05
2022-08-31T20:25:59.278Z,53.04
2022-08-31T20:31:07.015Z,53.11
2022-08-31T20:36:19.068Z,52.67
2022-08-31T20:41:23.528Z,52.70
2022-08-31T20:46:44.137Z,52.52
2022-08-31T20:51:47.368Z,52.67
2022-08-31T20:56:51.751Z,52.94
2022-08-31T21:01:59.397Z,52.94
2022-08-31T21:07:02.918Z,52.72
2022-08-31T21:12:07.789Z,52.76
2022-08-31T21:17:11.230Z,52.47
2022-08-31T21:22:17.418Z,52.41
2022-08-31T21:27:23.659Z,52.41
2022-08-31T21:32:26.549Z,52.80
2022-08-31T21:37:29.191Z,52.76
2022-08-31T21:42:33.854Z,52.75
2022-08-31T21:47:36.676Z,52.58
2022-08-31T21:52:39.521Z,52.57
2022-08-31T21:57:44.013Z,52.24
2022-08-31T22:02:46.875Z,52.51
2022-08-31T22:07:49.902Z,52.61
2022-08-31T22:12:53.965Z,52.71
2022-08-31T22:18:25.927Z,53.04
2022-08-31T22:23:22.019Z,52.97
2022-08-31T22:28:27.546Z,53.08
2022-08-31T22:33:30.474Z,53.02
2022-08-31T22:38:34.723Z,53.21
2022-08-31T22:43:39.513Z,53.46
2022-08-31T22:48:42.243Z,53.47
2022-08-31T22:53:47.904Z,53.91
2022-08-31T22:58:52.669Z,53.95
2022-08-31T23:03:57.185Z,53.74
2022-08-31T23:09:00.888Z,54.36
2022-08-31T23:14:08.942Z,54.27
2022-08-31T23:19:14.310Z,54.38
2022-08-31T23:24:19.193Z,54.63
2022-08-31T23:29:23.272Z,54.45
2022-08-31T23:34:26.192Z,54.99
2022-08-31T23:39:29.642Z,54.91
2022-08-31T23:44:36.061Z,54.88
2022-08-31T23:49:40.418Z,55.09
2022-08-31T23:54:43.126Z,55.19
2022-08-31T23:59:52.680Z,55.69
